Time;durP1;ratioP1;P1;durP2;ratioP2;P2;SDS_P1;SDS_P2;PMS_P1;PMS_P2;Temp;Humidity;BMP_temperature;BMP_pressure;BME280_temperature;BME280_humidity;BME280_pressure;Samples;Min_cycle;Max_cycle;Signal;HPM_P1;HPM_P2
2021/06/29 00:02:17;;;;;;;2.58;1.02;;;19.70;99.90;;;;;;4952483;28;20028;-75
2021/06/29 00:04:43;;;;;;;0.30;0.30;;;19.60;99.90;;;;;;4935446;28;20029;-75
2021/06/29 00:07:08;;;;;;;0.40;0.40;;;19.60;99.90;;;;;;4952244;29;20525;-75
2021/06/29 00:09:35;;;;;;;1.17;1.08;;;19.60;99.90;;;;;;4935072;28;20127;-75
2021/06/29 00:12:01;;;;;;;0.63;0.25;;;19.50;99.90;;;;;;4952350;29;20399;-74
2021/06/29 00:14:28;;;;;;;0.10;0.10;;;19.40;99.90;;;;;;4919407;28;20020;-75
2021/06/29 00:16:54;;;;;;;0.20;0.20;;;19.40;99.90;;;;;;4935162;29;20031;-75
2021/06/29 00:19:20;;;;;;;0.10;0.10;;;19.50;99.90;;;;;;4935224;28;20453;-75
2021/06/29 00:21:47;;;;;;;0.20;0.20;;;19.60;99.90;;;;;;4952102;29;20165;-75
2021/06/29 00:24:13;;;;;;;1.75;1.40;;;19.60;99.90;;;;;;5018584;28;20066;-75
2021/06/29 00:26:39;;;;;;;0.30;0.30;;;19.60;99.90;;;;;;4951979;28;20035;-75
2021/06/29 00:29:04;;;;;;;0.10;0.10;;;19.50;99.90;;;;;;4951822;29;20028;-75
2021/06/29 00:31:30;;;;;;;0.10;0.10;;;19.60;99.90;;;;;;4951943;29;20023;-74
2021/06/29 00:33:56;;;;;;;0.60;0.60;;;19.80;99.90;;;;;;4951898;29;20479;-75
2021/06/29 00:36:22;;;;;;;0.17;0.17;;;19.90;99.90;;;;;;4918960;28;20038;-75
2021/06/29 00:38:47;;;;;;;0.10;0.10;;;19.70;99.90;;;;;;4934520;28;20487;-75
2021/06/29 00:41:13;;;;;;;0.10;0.10;;;19.70;99.90;;;;;;4934741;28;20039;-75
2021/06/29 00:43:45;;;;;;;1.65;0.60;;;19.90;99.90;;;;;;4951856;28;20100;-75
2021/06/29 00:46:11;;;;;;;0.10;0.10;;;19.80;99.90;;;;;;4951930;29;20019;-75
2021/06/29 00:48:37;;;;;;;0.57;0.40;;;19.70;99.90;;;;;;4934374;28;20046;-75
2021/06/29 00:51:03;;;;;;;0.10;0.10;;;19.60;99.90;;;;;;4951818;28;20020;-75
2021/06/29 00:53:29;;;;;;;0.20;0.20;;;19.50;99.90;;;;;;4934591;28;20386;-76
2021/06/29 00:55:55;;;;;;;0.10;0.10;;;19.40;99.90;;;;;;4951704;29;20506;-75
2021/06/29 00:58:21;;;;;;;0.10;0.10;;;19.70;99.90;;;;;;4918523;28;20097;-75
2021/06/29 01:00:47;;;;;;;0.20;0.20;;;19.80;99.90;;;;;;4934437;29;20035;-74
2021/06/29 01:03:12;;;;;;;0.10;0.10;;;19.90;99.90;;;;;;4918500;28;20046;-74
2021/06/29 01:05:40;;;;;;;0.38;0.38;;;20.10;99.90;;;;;;4951821;29;20031;-75
2021/06/29 01:08:06;;;;;;;0.10;0.10;;;20.00;99.90;;;;;;4934336;28;20441;-74
2021/06/29 01:10:31;;;;;;;0.10;0.10;;;19.80;99.90;;;;;;4934404;29;20055;-75
2021/06/29 01:12:57;;;;;;;0.10;0.10;;;19.90;99.90;;;;;;4934422;29;20503;-75
2021/06/29 01:15:24;;;;;;;0.13;0.13;;;20.00;99.90;;;;;;4951382;29;20027;-75
2021/06/29 01:17:55;;;;;;;0.10;0.10;;;20.00;99.90;;;;;;4934105;29;20415;-75
2021/06/29 01:20:28;;;;;;;2.00;0.80;;;20.00;99.90;;;;;;4934120;29;20023;-75
2021/06/29 01:22:57;;;;;;;0.43;0.20;;;20.00;99.90;;;;;;4933977;28;20406;-75
2021/06/29 01:25:26;;;;;;;0.68;0.68;;;19.90;99.90;;;;;;4951495;28;20031;-75
2021/06/29 01:32:48;;;;;;;0.20;0.20;;;19.80;99.90;;;;;;4951111;28;20026;-75
2021/06/29 01:35:14;;;;;;;0.60;0.40;;;19.80;99.90;;;;;;4951246;28;20154;-75
2021/06/29 01:37:40;;;;;;;0.10;0.10;;;19.70;99.90;;;;;;4918088;28;20493;-75
2021/06/29 01:40:28;;;;;;;0.20;0.20;;;19.50;99.90;;;;;;4933895;28;20076;-75
2021/06/29 01:42:58;;;;;;;0.20;0.20;;;19.50;99.90;;;;;;4951144;28;20070;-75
2021/06/29 01:45:27;;;;;;;0.52;0.43;;;19.50;99.90;;;;;;4951169;28;20169;-75
2021/06/29 01:47:55;;;;;;;0.30;0.30;;;19.60;99.90;;;;;;4917832;29;20509;-74
2021/06/29 01:50:22;;;;;;;0.32;0.32;;;19.70;99.90;;;;;;4934134;29;20046;-74
2021/06/29 01:52:53;;;;;;;0.40;0.28;;;19.70;99.90;;;;;;4921508;28;20557;-75
2021/06/29 01:55:18;;;;;;;0.30;0.30;;;19.70;99.90;;;;;;4937396;29;20390;-75
2021/06/29 01:57:46;;;;;;;0.10;0.10;;;19.60;99.90;;;;;;4937010;28;20028;-75
2021/06/29 02:00:14;;;;;;;0.20;0.20;;;19.80;99.90;;;;;;4954362;28;20506;-75
2021/06/29 02:02:40;;;;;;;0.15;0.15;;;19.80;99.90;;;;;;4921200;28;20034;-75
2021/06/29 02:05:06;;;;;;;0.20;0.20;;;19.80;99.90;;;;;;4954180;29;20466;-74
2021/06/29 02:07:32;;;;;;;0.17;0.17;;;19.80;99.90;;;;;;5037251;28;20394;-75
2021/06/29 02:09:58;;;;;;;0.30;0.30;;;19.80;99.90;;;;;;4937007;29;20030;-74
2021/06/29 02:12:24;;;;;;;0.10;0.10;;;19.80;99.90;;;;;;4936803;28;20019;-75
2021/06/29 02:14:49;;;;;;;0.10;0.10;;;19.90;99.90;;;;;;4954112;29;20479;-75
2021/06/29 02:17:15;;;;;;;0.10;0.10;;;20.10;99.90;;;;;;4954003;28;20391;-75
2021/06/29 02:19:41;;;;;;;0.10;0.10;;;19.90;99.90;;;;;;5020786;28;20380;-76
2021/06/29 02:22:07;;;;;;;0.10;0.10;;;20.00;99.90;;;;;;4936716;28;20035;-75
2021/06/29 02:24:33;;;;;;;0.10;0.10;;;20.10;99.90;;;;;;4953842;28;20555;-75
2021/06/29 02:27:00;;;;;;;0.10;0.10;;;20.10;99.90;;;;;;4953890;29;20028;-75
2021/06/29 02:29:25;;;;;;;0.10;0.10;;;20.20;99.90;;;;;;4953635;28;20027;-75
2021/06/29 02:31:52;;;;;;;0.73;0.73;;;20.20;99.90;;;;;;4936612;29;20027;-74
2021/06/29 02:34:17;;;;;;;0.43;0.30;;;19.90;99.90;;;;;;4953823;28;20020;-75
2021/06/29 02:36:43;;;;;;;0.30;0.30;;;19.80;99.90;;;;;;4953776;28;20548;-75
2021/06/29 02:39:10;;;;;;;0.10;0.10;;;19.50;99.90;;;;;;4953560;28;20080;-75
2021/06/29 02:41:35;;;;;;;0.10;0.10;;;19.40;99.90;;;;;;4936409;28;20035;-75
2021/06/29 02:44:01;;;;;;;0.10;0.10;;;19.40;99.90;;;;;;4936634;28;20046;-75
2021/06/29 02:46:27;;;;;;;0.10;0.10;;;19.50;99.90;;;;;;4936500;29;20061;-75
2021/06/29 02:48:55;;;;;;;0.10;0.10;;;19.70;99.90;;;;;;4953254;29;20028;-75
2021/06/29 02:51:22;;;;;;;0.40;0.40;;;19.80;99.90;;;;;;4920503;28;20387;-75
2021/06/29 02:53:48;;;;;;;0.05;0.05;;;19.70;99.90;;;;;;4953550;29;20085;-75
2021/06/29 02:58:58;;;;;;;0.10;0.10;;;19.70;99.90;;;;;;5036288;28;20035;-75
2021/06/29 03:01:23;;;;;;;0.32;0.32;;;19.70;99.90;;;;;;4935975;28;20069;-74
2021/06/29 03:03:49;;;;;;;0.10;0.10;;;19.50;99.90;;;;;;4934972;28;20027;-75
2021/06/29 03:06:15;;;;;;;0.05;0.05;;;19.50;99.90;;;;;;4936263;29;20046;-74
2021/06/29 03:08:41;;;;;;;0.63;0.63;;;19.50;99.90;;;;;;4953125;28;20035;-74
2021/06/29 03:11:07;;;;;;;0.70;0.50;;;19.50;99.90;;;;;;4920324;28;20391;-74
2021/06/29 03:13:33;;;;;;;0.85;0.80;;;19.30;99.90;;;;;;4936227;28;20047;-76
2021/06/29 03:15:59;;;;;;;0.10;0.10;;;19.30;99.90;;;;;;4936024;28;20028;-75
2021/06/29 03:18:25;;;;;;;0.40;0.40;;;19.20;99.90;;;;;;4935812;28;20498;-75
2021/06/29 03:20:51;;;;;;;0.20;0.20;;;19.30;99.90;;;;;;4953009;29;20364;-75
2021/06/29 03:23:16;;;;;;;0.00;0.00;;;19.30;99.90;;;;;;4952803;28;20028;-75
2021/06/29 03:25:42;;;;;;;0.98;0.75;;;19.30;99.90;;;;;;4919959;28;20036;-75
2021/06/29 03:28:09;;;;;;;0.55;0.55;;;19.30;99.90;;;;;;4935594;28;20027;-75
2021/06/29 03:30:35;;;;;;;0.68;0.68;;;19.40;99.90;;;;;;4935863;28;20482;-75
2021/06/29 03:33:00;;;;;;;1.00;0.90;;;19.30;99.90;;;;;;4953102;29;20098;-75
2021/06/29 03:35:26;;;;;;;1.95;0.50;;;19.10;99.90;;;;;;4952981;28;20098;-75
2021/06/29 03:37:53;;;;;;;0.10;0.10;;;19.10;99.90;;;;;;4952540;29;20073;-75
2021/06/29 03:40:19;;;;;;;1.48;1.02;;;18.90;99.90;;;;;;4935721;28;20031;-75
2021/06/29 03:42:45;;;;;;;0.30;0.30;;;19.00;99.90;;;;;;4952683;28;20218;-75
2021/06/29 03:45:11;;;;;;;0.30;0.30;;;18.90;99.90;;;;;;4935881;28;20043;-75
2021/06/29 03:47:37;;;;;;;0.30;0.30;;;19.10;99.90;;;;;;4935274;28;20038;-74
2021/06/29 03:50:04;;;;;;;0.35;0.20;;;19.20;99.90;;;;;;5035866;28;20490;-75
2021/06/29 03:52:30;;;;;;;0.10;0.10;;;19.20;99.90;;;;;;4935427;28;20093;-75
2021/06/29 03:54:56;;;;;;;0.10;0.10;;;19.00;99.90;;;;;;4952700;28;20023;-74
2021/06/29 03:57:22;;;;;;;0.28;0.28;;;19.00;99.90;;;;;;4935174;29;20077;-76
2021/06/29 03:59:48;;;;;;;0.50;0.50;;;19.10;99.90;;;;;;4952515;28;20035;-75
2021/06/29 04:02:14;;;;;;;0.10;0.10;;;19.10;99.90;;;;;;4952421;29;20382;-75
2021/06/29 04:04:40;;;;;;;0.10;0.10;;;18.90;99.90;;;;;;4919573;28;20030;-75
2021/06/29 04:07:08;;;;;;;0.05;0.05;;;18.90;99.90;;;;;;4952374;28;20507;-74
2021/06/29 04:09:34;;;;;;;0.10;0.10;;;19.00;99.90;;;;;;4934969;29;20062;-75
2021/06/29 04:12:00;;;;;;;0.35;0.35;;;19.20;99.90;;;;;;4919191;28;20112;-75
2021/06/29 04:14:26;;;;;;;0.45;0.45;;;19.10;99.90;;;;;;4951822;28;20347;-74
2021/06/29 04:16:52;;;;;;;0.55;0.50;;;18.80;99.90;;;;;;5035255;28;20027;-74
2021/06/29 04:19:17;;;;;;;0.10;0.10;;;18.60;99.90;;;;;;4952196;28;20038;-74
2021/06/29 04:21:43;;;;;;;0.22;0.22;;;18.60;99.90;;;;;;4951716;29;20039;-75
2021/06/29 04:24:09;;;;;;;0.55;0.43;;;18.60;99.90;;;;;;4952148;29;20042;-74
2021/06/29 04:26:35;;;;;;;0.10;0.10;;;18.40;99.90;;;;;;4934842;28;20085;-75
2021/06/29 04:29:01;;;;;;;0.38;0.38;;;18.50;99.90;;;;;;4951789;28;20038;-76
2021/06/29 04:31:27;;;;;;;0.20;0.20;;;18.40;99.90;;;;;;4935036;29;20383;-75
2021/06/29 04:33:54;;;;;;;0.28;0.28;;;18.50;99.90;;;;;;4951917;28;20023;-75
2021/06/29 04:36:20;;;;;;;0.08;0.08;;;18.60;99.90;;;;;;4919014;28;20422;-75
2021/06/29 04:38:46;;;;;;;2.17;1.00;;;18.80;99.90;;;;;;4951762;28;20077;-75
2021/06/29 04:41:12;;;;;;;0.10;0.10;;;19.00;99.90;;;;;;4951863;28;20042;-75
2021/06/29 04:43:40;;;;;;;0.43;0.20;;;19.20;99.90;;;;;;4952020;28;20023;-75
2021/06/29 04:46:05;;;;;;;0.50;0.50;;;19.30;99.90;;;;;;4951871;28;20031;-74
2021/06/29 04:48:34;;;;;;;0.30;0.30;;;19.40;99.90;;;;;;4951564;28;20260;-75
2021/06/29 04:51:00;;;;;;;1.23;0.88;;;19.30;99.90;;;;;;4934666;29;20023;-75
2021/06/29 04:53:25;;;;;;;0.20;0.20;;;19.10;99.90;;;;;;4951625;29;20027;-75
2021/06/29 04:55:51;;;;;;;2.40;0.43;;;19.10;99.90;;;;;;4951502;29;20202;-76
2021/06/29 04:58:17;;;;;;;0.82;0.82;;;19.00;99.90;;;;;;4951129;28;20034;-75
2021/06/29 05:00:45;;;;;;;0.47;0.47;;;19.10;99.90;;;;;;4954829;28;20022;-75
2021/06/29 05:03:12;;;;;;;1.10;0.95;;;19.30;99.90;;;;;;4991011;28;20116;-75
2021/06/29 05:05:38;;;;;;;0.75;0.73;;;19.40;99.90;;;;;;4976073;28;20040;-76
2021/06/29 05:08:04;;;;;;;0.30;0.30;;;19.40;99.90;;;;;;5031937;28;20021;-75
2021/06/29 05:10:29;;;;;;;0.75;0.65;;;19.30;99.90;;;;;;5001250;28;20044;-75
2021/06/29 05:12:55;;;;;;;2.05;1.10;;;19.00;99.90;;;;;;4985012;28;20169;-75
2021/06/29 05:15:21;;;;;;;0.10;0.10;;;18.90;99.90;;;;;;4979607;28;20469;-75
2021/06/29 05:17:47;;;;;;;0.10;0.10;;;19.10;99.90;;;;;;5008320;28;20543;-75
2021/06/29 05:20:13;;;;;;;0.10;0.10;;;19.30;99.90;;;;;;4951426;28;20479;-74
2021/06/29 05:22:39;;;;;;;0.32;0.32;;;19.40;99.90;;;;;;4950101;28;20043;-75
2021/06/29 05:25:07;;;;;;;0.10;0.10;;;19.60;99.90;;;;;;5003855;28;20027;-75
2021/06/29 05:27:35;;;;;;;0.10;0.10;;;19.60;99.90;;;;;;5005295;28;20027;-77
2021/06/29 05:30:01;;;;;;;0.47;0.47;;;19.60;99.90;;;;;;4992190;28;20036;-75
2021/06/29 05:32:27;;;;;;;0.10;0.10;;;19.50;99.90;;;;;;4984705;28;20025;-75
2021/06/29 05:34:52;;;;;;;2.78;1.35;;;19.40;99.90;;;;;;5006757;28;20363;-76
2021/06/29 05:37:18;;;;;;;0.20;0.20;;;19.30;99.90;;;;;;5008327;28;20027;-76
2021/06/29 05:39:44;;;;;;;0.20;0.20;;;19.20;99.90;;;;;;4975173;28;20102;-76
2021/06/29 05:42:10;;;;;;;0.30;0.30;;;19.30;99.90;;;;;;4999502;28;20034;-78
2021/06/29 05:44:36;;;;;;;0.57;0.57;;;19.30;99.90;;;;;;5020300;28;20029;-78
2021/06/29 05:47:06;;;;;;;0.10;0.10;;;19.30;99.90;;;;;;4990783;28;20038;-76
2021/06/29 05:49:31;;;;;;;0.30;0.30;;;19.30;99.90;;;;;;4993406;28;20073;-76
2021/06/29 05:51:57;;;;;;;1.15;0.60;;;19.30;99.90;;;;;;4985275;28;20047;-76
2021/06/29 05:54:23;;;;;;;2.13;1.58;;;19.20;99.90;;;;;;4952365;28;20018;-76
2021/06/29 05:56:49;;;;;;;0.13;0.13;;;19.10;99.90;;;;;;4999952;28;20488;-76
2021/06/29 05:59:14;;;;;;;0.10;0.10;;;18.90;99.90;;;;;;5001564;28;20115;-76
2021/06/29 06:01:40;;;;;;;0.47;0.40;;;18.70;99.90;;;;;;4978867;28;20418;-78
2021/06/29 06:04:06;;;;;;;0.80;0.80;;;18.50;99.90;;;;;;4932609;28;20046;-74
2021/06/29 06:06:32;;;;;;;0.10;0.10;;;18.20;99.90;;;;;;4950293;28;20025;-75
2021/06/29 06:08:57;;;;;;;0.10;0.10;;;18.10;99.90;;;;;;5025065;28;20080;-76
2021/06/29 06:11:23;;;;;;;0.10;0.10;;;18.20;99.90;;;;;;5039428;28;20060;-76
2021/06/29 06:13:49;;;;;;;4.43;0.90;;;18.20;99.90;;;;;;4969168;28;20023;-76
2021/06/29 06:16:14;;;;;;;0.93;0.93;;;18.00;99.90;;;;;;4998484;28;20031;-77
2021/06/29 06:18:42;;;;;;;3.92;1.20;;;17.90;99.90;;;;;;4986843;28;20027;-75
2021/06/29 06:21:09;;;;;;;1.20;1.13;;;17.80;99.90;;;;;;5001077;28;20025;-76
2021/06/29 06:23:35;;;;;;;1.48;1.00;;;17.60;99.90;;;;;;4999842;28;20039;-77
2021/06/29 06:26:01;;;;;;;1.35;1.25;;;17.50;99.90;;;;;;4955778;28;20039;-75
2021/06/29 06:28:26;;;;;;;0.10;0.10;;;17.30;99.90;;;;;;4974857;28;20050;-76
2021/06/29 06:30:52;;;;;;;1.48;1.23;;;17.50;99.90;;;;;;4954844;28;20067;-75
2021/06/29 06:33:19;;;;;;;0.75;0.75;;;17.60;99.90;;;;;;4949923;28;20051;-76
2021/06/29 06:35:45;;;;;;;0.30;0.30;;;17.70;99.90;;;;;;5004059;28;20036;-80
2021/06/29 06:38:10;;;;;;;0.10;0.10;;;17.90;99.90;;;;;;4983071;28;20020;-76
2021/06/29 06:40:36;;;;;;;0.15;0.15;;;18.10;99.90;;;;;;4959654;28;20053;-75
2021/06/29 06:43:02;;;;;;;0.10;0.10;;;18.40;99.90;;;;;;4988661;28;20029;-74
2021/06/29 06:45:28;;;;;;;0.00;0.00;;;18.40;99.90;;;;;;4971703;28;20576;-76
2021/06/29 06:47:54;;;;;;;0.15;0.15;;;18.60;99.90;;;;;;5003924;28;20063;-76
2021/06/29 06:50:21;;;;;;;0.17;0.17;;;18.50;99.90;;;;;;4973473;28;20458;-74
2021/06/29 06:52:47;;;;;;;0.50;0.40;;;18.50;99.90;;;;;;5000671;28;20098;-75
2021/06/29 06:55:13;;;;;;;0.20;0.20;;;18.30;99.90;;;;;;4981723;28;20032;-75
2021/06/29 06:57:41;;;;;;;1.08;0.50;;;18.40;99.90;;;;;;4992922;28;20546;-75
2021/06/29 07:00:09;;;;;;;0.60;0.45;;;18.30;99.90;;;;;;4934467;28;20092;-75
2021/06/29 07:02:37;;;;;;;0.85;0.85;;;18.30;99.90;;;;;;4951366;28;20114;-76
2021/06/29 07:05:04;;;;;;;1.23;1.13;;;18.30;99.90;;;;;;4972532;28;20019;-78
2021/06/29 07:07:30;;;;;;;0.50;0.50;;;18.40;99.90;;;;;;5006299;28;20398;-75
2021/06/29 07:09:56;;;;;;;0.10;0.10;;;18.30;99.90;;;;;;4986985;28;20508;-76
2021/06/29 07:12:22;;;;;;;0.10;0.10;;;18.40;99.90;;;;;;4936255;28;20025;-75
2021/06/29 07:14:48;;;;;;;0.10;0.10;;;18.70;99.90;;;;;;4973761;28;20439;-76
2021/06/29 07:17:13;;;;;;;0.25;0.25;;;18.90;99.90;;;;;;4965635;28;20477;-80
2021/06/29 07:19:39;;;;;;;0.47;0.47;;;18.90;99.90;;;;;;4985376;28;20115;-76
2021/06/29 07:22:05;;;;;;;0.10;0.10;;;19.30;99.90;;;;;;4991204;28;20137;-76
2021/06/29 07:27:10;;;;;;;0.10;0.10;;;19.80;99.90;;;;;;5067456;28;20729;-75
2021/06/29 07:29:36;;;;;;;0.10;0.10;;;20.10;99.90;;;;;;5066770;28;20052;-76
2021/06/29 07:32:04;;;;;;;0.10;0.10;;;20.20;99.90;;;;;;5066074;28;20576;-76
2021/06/29 07:34:29;;;;;;;1.15;1.15;;;20.70;99.90;;;;;;5068377;28;20027;-76
2021/06/29 07:36:55;;;;;;;0.40;0.40;;;21.00;99.90;;;;;;5066156;28;20112;-76
2021/06/29 07:39:22;;;;;;;0.28;0.28;;;21.00;99.90;;;;;;5068331;28;20025;-76
2021/06/29 07:41:47;;;;;;;0.20;0.20;;;21.10;99.90;;;;;;5067925;28;20361;-77
2021/06/29 07:44:13;;;;;;;0.10;0.10;;;21.00;99.90;;;;;;5066683;28;20028;-75
2021/06/29 07:46:39;;;;;;;0.10;0.10;;;21.10;99.90;;;;;;5066393;28;20044;-75
2021/06/29 07:49:05;;;;;;;0.25;0.25;;;21.20;99.90;;;;;;5067210;28;20025;-75
2021/06/29 07:51:32;;;;;;;0.10;0.10;;;21.50;99.90;;;;;;5066659;28;20039;-76
2021/06/29 07:53:58;;;;;;;0.52;0.52;;;21.70;99.80;;;;;;5067435;28;20021;-74
2021/06/29 07:56:25;;;;;;;0.05;0.05;;;21.80;99.30;;;;;;5068055;28;20037;-74
2021/06/29 07:58:51;;;;;;;0.60;0.32;;;21.50;99.10;;;;;;5065629;28;20051;-74
2021/06/29 08:01:17;;;;;;;0.65;0.65;;;21.50;95.40;;;;;;5066468;28;20112;-74
2021/06/29 08:03:43;;;;;;;0.00;0.00;;;21.30;94.90;;;;;;5066934;28;20035;-74
2021/06/29 08:06:09;;;;;;;0.30;0.30;;;21.40;96.30;;;;;;5065907;28;20032;-74
2021/06/29 08:08:36;;;;;;;0.10;0.10;;;21.80;95.10;;;;;;5066678;28;20027;-74
2021/06/29 08:11:05;;;;;;;0.10;0.10;;;22.00;93.90;;;;;;5067667;28;20025;-74
2021/06/29 08:13:31;;;;;;;0.55;0.55;;;22.10;91.40;;;;;;5062395;28;20013;-74
2021/06/29 08:15:57;;;;;;;0.10;0.10;;;22.40;91.10;;;;;;5066259;28;20362;-74
2021/06/29 08:18:24;;;;;;;0.28;0.28;;;22.70;91.00;;;;;;5065207;28;20033;-74
2021/06/29 08:20:51;;;;;;;0.00;0.00;;;23.00;89.40;;;;;;5067530;28;20031;-74
2021/06/29 08:23:17;;;;;;;0.08;0.08;;;23.10;85.60;;;;;;5048831;28;20059;-74
2021/06/29 08:25:44;;;;;;;0.08;0.08;;;23.50;85.20;;;;;;5065756;28;20057;-74
2021/06/29 08:28:13;;;;;;;0.00;0.00;;;23.60;82.20;;;;;;5065509;28;20083;-74
2021/06/29 08:30:40;;;;;;;0.03;0.03;;;24.00;82.80;;;;;;5049473;28;20623;-74
2021/06/29 08:33:11;;;;;;;0.22;0.22;;;24.00;81.10;;;;;;5066423;28;20017;-74
2021/06/29 08:35:42;;;;;;;0.30;0.30;;;24.20;78.30;;;;;;5065640;28;20119;-74
2021/06/29 08:38:08;;;;;;;0.10;0.10;;;24.40;80.40;;;;;;5054098;28;20075;-74
2021/06/29 08:40:39;;;;;;;0.00;0.00;;;24.40;80.70;;;;;;5036412;28;20059;-76
2021/06/29 08:43:06;;;;;;;0.00;0.00;;;24.00;79.70;;;;;;5052777;28;20068;-75
2021/06/29 08:45:33;;;;;;;0.10;0.10;;;24.20;78.40;;;;;;5051950;28;20079;-75
2021/06/29 08:48:00;;;;;;;0.43;0.43;;;24.50;76.30;;;;;;5046720;28;20101;-73
2021/06/29 08:50:29;;;;;;;0.00;0.00;;;24.20;74.50;;;;;;5052105;28;20025;-73
2021/06/29 08:52:57;;;;;;;0.32;0.30;;;24.60;76.80;;;;;;5051450;28;20024;-73
2021/06/29 08:55:26;;;;;;;0.10;0.10;;;24.60;76.30;;;;;;5053372;28;20072;-73
2021/06/29 08:57:52;;;;;;;0.10;0.10;;;24.90;72.80;;;;;;5051843;28;20101;-73
2021/06/29 09:00:18;;;;;;;0.30;0.30;;;25.20;71.70;;;;;;5052019;28;20029;-73
2021/06/29 09:02:44;;;;;;;0.20;0.20;;;25.50;71.50;;;;;;5035214;28;20120;-73
2021/06/29 09:05:27;;;;;;;0.10;0.10;;;25.70;69.20;;;;;;5052312;28;20104;-73
2021/06/29 09:08:06;;;;;;;0.00;0.00;;;25.60;65.40;;;;;;5051852;28;20110;-73
2021/06/29 09:10:32;;;;;;;0.00;0.00;;;25.70;68.90;;;;;;5051758;28;20366;-73
2021/06/29 09:12:59;;;;;;;0.08;0.08;;;26.00;70.70;;;;;;5053103;28;20065;-73
2021/06/29 09:15:39;;;;;;;0.00;0.00;;;26.10;68.40;;;;;;5052136;28;20028;-73
2021/06/29 09:18:05;;;;;;;0.10;0.10;;;26.30;66.00;;;;;;5051622;28;20067;-73
2021/06/29 09:20:38;;;;;;;0.10;0.10;;;26.50;63.90;;;;;;5050812;28;20025;-73
2021/06/29 09:23:33;;;;;;;0.00;0.00;;;26.80;62.50;;;;;;5047401;28;20396;-73
2021/06/29 09:26:00;;;;;;;1.25;0.13;;;26.80;61.40;;;;;;5050184;28;20124;-73
2021/06/29 09:28:33;;;;;;;0.03;0.03;;;27.00;60.80;;;;;;5050668;28;20424;-73
2021/06/29 09:31:21;;;;;;;1.08;0.47;;;26.70;61.50;;;;;;5050365;28;20040;-74
2021/06/29 09:34:11;;;;;;;0.82;0.80;;;26.70;61.80;;;;;;5049317;28;20036;-74
2021/06/29 09:36:39;;;;;;;0.10;0.10;;;26.90;63.10;;;;;;5052318;28;20041;-74
2021/06/29 09:39:08;;;;;;;0.00;0.00;;;27.10;64.70;;;;;;5050441;28;20482;-75
2021/06/29 09:41:36;;;;;;;0.05;0.05;;;27.40;61.20;;;;;;5049131;28;20020;-74
2021/06/29 09:44:06;;;;;;;0.00;0.00;;;27.60;57.50;;;;;;5050483;28;20400;-74
2021/06/29 09:46:32;;;;;;;1.25;0.30;;;27.50;61.30;;;;;;5052352;28;20033;-74
2021/06/29 09:49:05;;;;;;;0.17;0.15;;;27.40;61.70;;;;;;5050515;28;20048;-74
2021/06/29 09:51:34;;;;;;;0.00;0.00;;;27.60;57.20;;;;;;5052357;28;20476;-74
2021/06/29 09:54:02;;;;;;;0.00;0.00;;;27.90;53.30;;;;;;5051724;28;20031;-74
2021/06/29 09:56:36;;;;;;;0.00;0.00;;;28.00;55.80;;;;;;5052560;28;20024;-74
2021/06/29 09:59:15;;;;;;;0.00;0.00;;;27.90;54.80;;;;;;5050458;28;20060;-74
2021/06/29 10:01:41;;;;;;;0.00;0.00;;;28.00;53.80;;;;;;5050236;28;20021;-72
2021/06/29 10:04:07;;;;;;;0.00;0.00;;;28.00;52.70;;;;;;5051164;28;20108;-71
2021/06/29 10:06:35;;;;;;;0.00;0.00;;;28.30;54.00;;;;;;5049670;28;20056;-72
2021/06/29 10:09:09;;;;;;;0.00;0.00;;;28.60;53.70;;;;;;5051373;28;20017;-72
2021/06/29 10:11:43;;;;;;;9.65;0.20;;;28.60;54.00;;;;;;5050215;28;20497;-71
2021/06/29 10:14:16;;;;;;;0.08;0.03;;;28.70;54.10;;;;;;5050831;28;20033;-71
2021/06/29 10:16:50;;;;;;;0.13;0.13;;;28.30;54.40;;;;;;5051426;28;20087;-71
2021/06/29 10:21:48;;;;;;;;;;;28.60;54.90;;;;;;5051866;28;20358;-72
2021/06/29 10:24:17;;;;;;;0.00;0.00;;;29.00;55.20;;;;;;5051163;28;19959;-71
2021/06/29 10:26:44;;;;;;;0.45;0.20;;;28.80;54.50;;;;;;5045388;28;20041;-71
2021/06/29 10:29:12;;;;;;;0.10;0.10;;;28.60;54.20;;;;;;5050655;28;20041;-72
2021/06/29 10:31:45;;;;;;;0.08;0.08;;;28.80;54.80;;;;;;5050415;28;20067;-72
2021/06/29 10:34:13;;;;;;;0.00;0.00;;;29.10;56.00;;;;;;5051201;28;20025;-71
2021/06/29 10:36:47;;;;;;;0.00;0.00;;;28.80;56.80;;;;;;5050372;28;20036;-72
2021/06/29 10:39:17;;;;;;;0.20;0.20;;;28.80;56.50;;;;;;5051046;28;20033;-71
2021/06/29 10:41:51;;;;;;;0.70;0.43;;;28.70;56.90;;;;;;5032145;28;20033;-71
2021/06/29 10:44:19;;;;;;;0.00;0.00;;;28.80;56.70;;;;;;5051177;28;20036;-71
2021/06/29 10:46:53;;;;;;;0.52;0.52;;;28.90;57.40;;;;;;5050237;28;20029;-71
2021/06/29 10:49:29;;;;;;;0.08;0.08;;;28.60;57.00;;;;;;5050926;28;20385;-71
2021/06/29 10:51:57;;;;;;;0.68;0.25;;;28.70;56.40;;;;;;5050457;28;20096;-72
2021/06/29 10:54:38;;;;;;;0.10;0.10;;;28.60;56.40;;;;;;5050878;28;20060;-71
2021/06/29 10:57:07;;;;;;;0.10;0.10;;;28.60;57.90;;;;;;5050012;28;20021;-71
2021/06/29 10:59:41;;;;;;;0.00;0.00;;;29.00;56.70;;;;;;5048901;28;20021;-72
2021/06/29 11:02:12;;;;;;;0.52;0.45;;;29.30;56.10;;;;;;5050048;28;20362;-71
2021/06/29 11:04:47;;;;;;;0.10;0.10;;;29.30;54.50;;;;;;5050834;28;20025;-71
2021/06/29 11:07:30;;;;;;;0.10;0.10;;;29.00;55.00;;;;;;5050019;28;20043;-71
2021/06/29 11:10:06;;;;;;;0.00;0.00;;;28.70;56.00;;;;;;5046189;28;20058;-71
2021/06/29 11:12:39;;;;;;;0.00;0.00;;;28.80;56.80;;;;;;5050712;28;20021;-72
2021/06/29 11:15:09;;;;;;;0.00;0.00;;;29.00;56.70;;;;;;5048607;28;20040;-71
2021/06/29 11:17:51;;;;;;;0.73;0.55;;;29.00;57.10;;;;;;5050419;28;20447;-71
2021/06/29 11:20:18;;;;;;;;;;;29.20;56.60;;;;;;5050300;28;20052;-72
2021/06/29 11:22:51;;;;;;;0.05;0.05;;;28.90;56.20;;;;;;5050295;28;20326;-72
2021/06/29 11:25:45;;;;;;;0.32;0.32;;;28.60;57.70;;;;;;5049448;28;20021;-71
2021/06/29 11:28:36;;;;;;;0.00;0.00;;;28.80;56.70;;;;;;5050250;28;20029;-72
2021/06/29 11:31:20;;;;;;;;;;;29.20;57.10;;;;;;5046711;28;20021;-72
2021/06/29 11:34:04;;;;;;;0.10;0.10;;;29.40;56.80;;;;;;5050207;28;19904;-72
2021/06/29 11:36:30;;;;;;;0.13;0.10;;;29.10;56.70;;;;;;5049929;28;20036;-72
2021/06/29 11:39:20;;;;;;;0.17;0.17;;;29.10;56.50;;;;;;5050425;28;20021;-72
2021/06/29 11:42:18;;;;;;;0.00;0.00;;;29.00;55.80;;;;;;5048212;28;20055;-71
2021/06/29 11:44:47;;;;;;;0.10;0.10;;;28.90;55.90;;;;;;5049054;28;20041;-72
2021/06/29 11:47:16;;;;;;;0.10;0.10;;;28.80;56.80;;;;;;5049537;28;20033;-71
2021/06/29 11:49:54;;;;;;;0.17;0.17;;;28.30;56.90;;;;;;5048641;28;20048;-71
2021/06/29 11:52:26;;;;;;;0.20;0.20;;;28.10;57.50;;;;;;5048560;28;20079;-71
2021/06/29 11:55:04;;;;;;;0.20;0.17;;;27.80;58.80;;;;;;5050022;28;20147;-71
2021/06/29 11:57:36;;;;;;;0.80;0.55;;;27.50;58.70;;;;;;5049252;28;20082;-72
2021/06/29 12:00:07;;;;;;;0.15;0.15;;;27.40;59.60;;;;;;5049848;28;20437;-74
2021/06/29 12:02:33;;;;;;;0.43;0.43;;;27.30;60.40;;;;;;5044872;28;20350;-74
2021/06/29 12:05:13;;;;;;;1.38;0.40;;;27.20;61.10;;;;;;5050346;28;20025;-74
2021/06/29 12:07:41;;;;;;;0.10;0.10;;;27.50;60.90;;;;;;5046391;28;20028;-73
2021/06/29 12:10:13;;;;;;;0.28;0.25;;;27.50;60.40;;;;;;5045684;28;20021;-74
2021/06/29 12:12:42;;;;;;;0.22;0.10;;;27.50;59.80;;;;;;5049655;28;20075;-74
2021/06/29 12:15:33;;;;;;;0.20;0.20;;;27.30;59.80;;;;;;5051907;28;20054;-74
2021/06/29 12:18:09;;;;;;;0.00;0.00;;;27.00;60.40;;;;;;5052646;28;20031;-74
2021/06/29 12:20:39;;;;;;;0.00;0.00;;;26.90;61.20;;;;;;5036204;28;20067;-74
2021/06/29 12:23:11;;;;;;;0.00;0.00;;;26.90;61.30;;;;;;5051140;28;20028;-74
2021/06/29 12:25:40;;;;;;;0.38;0.38;;;27.10;60.90;;;;;;5053710;28;20028;-74
2021/06/29 12:28:22;;;;;;;0.10;0.10;;;27.10;61.70;;;;;;5052249;28;20388;-74
2021/06/29 12:30:51;;;;;;;0.05;0.05;;;27.10;62.20;;;;;;5053279;28;20017;-73
2021/06/29 12:33:22;;;;;;;0.00;0.00;;;27.00;62.70;;;;;;5051489;28;20021;-74
2021/06/29 12:36:13;;;;;;;0.22;0.22;;;26.90;61.70;;;;;;5047986;28;20024;-73
2021/06/29 12:38:49;;;;;;;0.20;0.20;;;26.90;62.30;;;;;;5052378;28;20065;-73
2021/06/29 12:41:22;;;;;;;7.43;0.68;;;27.00;63.10;;;;;;5053317;28;20275;-74
2021/06/29 12:44:10;;;;;;;0.10;0.10;;;26.90;62.90;;;;;;5051950;28;20025;-74
2021/06/29 12:46:41;;;;;;;0.10;0.10;;;27.00;62.50;;;;;;5049461;28;20040;-74
2021/06/29 12:49:11;;;;;;;0.40;0.40;;;27.00;62.50;;;;;;5053252;28;20543;-74
2021/06/29 12:51:41;;;;;;;0.08;0.08;;;26.80;62.40;;;;;;5047001;28;20096;-73
2021/06/29 12:54:09;;;;;;;0.32;0.32;;;26.70;62.90;;;;;;5052519;28;20378;-74
2021/06/29 12:56:42;;;;;;;0.20;0.20;;;26.70;64.10;;;;;;5053003;28;20021;-73
2021/06/29 12:59:10;;;;;;;0.00;0.00;;;26.60;63.30;;;;;;5051791;28;20033;-73
2021/06/29 13:01:49;;;;;;;3.53;0.60;;;26.50;64.60;;;;;;5051673;28;20489;-74
2021/06/29 13:04:16;;;;;;;0.55;0.52;;;26.70;65.20;;;;;;5052089;28;20032;-74
2021/06/29 13:06:44;;;;;;;0.17;0.17;;;26.70;64.50;;;;;;5051621;28;20029;-74
2021/06/29 13:09:11;;;;;;;0.57;0.57;;;26.60;65.60;;;;;;5051420;28;20017;-74